createdAt,value
2023-01-17T00:01:06.068Z,15.3
2023-01-17T00:06:01.084Z,16.3
2023-01-17T00:11:06.105Z,16.6
2023-01-17T00:16:01.091Z,17.2
2023-01-17T00:21:01.082Z,16.2
2023-01-17T00:26:01.085Z,17.0
2023-01-17T00:31:01.162Z,16.2
2023-01-17T00:36:06.053Z,15.7
2023-01-17T00:41:01.060Z,15.5
2023-01-17T00:46:01.057Z,16.7
2023-01-17T00:51:01.099Z,16.1
2023-01-17T00:56:07.367Z,16.6
2023-01-17T01:01:01.145Z,16.8
2023-01-17T01:06:01.122Z,17.7
2023-01-17T01:11:01.085Z,17.1
2023-01-17T01:16:01.154Z,15.9
2023-01-17T01:21:01.074Z,13.2
2023-01-17T01:26:02.247Z,10.8
2023-01-17T01:31:01.096Z,7.5
2023-01-17T01:36:08.074Z,4.9
2023-01-17T01:41:01.100Z,2.8
2023-01-17T01:46:02.455Z,2.2
2023-01-17T01:51:06.113Z,1.5
2023-01-17T01:56:01.073Z,1.4
2023-01-17T02:01:01.148Z,1.2
2023-01-17T02:11:06.106Z,1.0
2023-01-17T02:16:01.114Z,0.8
2023-01-17T04:06:01.144Z,0.6
2023-01-17T04:26:01.688Z,0.4
2023-01-17T04:31:06.065Z,0.3
2023-01-17T04:36:01.118Z,0.5
2023-01-17T04:41:01.085Z,0.7
2023-01-17T04:46:01.123Z,0.9
2023-01-17T04:56:01.068Z,1.0
2023-01-17T05:11:01.128Z,1.2
2023-01-17T05:21:06.101Z,1.3
2023-01-17T05:26:01.065Z,1.7
2023-01-17T05:31:01.118Z,1.8
2023-01-17T05:36:01.245Z,1.7
2023-01-17T05:41:01.102Z,2.2
2023-01-17T05:46:06.130Z,2.1
2023-01-17T05:51:01.081Z,1.7
2023-01-17T06:01:01.093Z,1.8
2023-01-17T06:07:01.194Z,1.3
2023-01-17T06:12:06.476Z,1.5
2023-01-17T06:17:01.091Z,1.6
2023-01-17T06:32:01.786Z,1.8
2023-01-17T06:37:06.061Z,2.1
2023-01-17T06:42:01.071Z,3.2
2023-01-17T06:52:01.104Z,3.4
2023-01-17T06:57:06.078Z,3.3
2023-01-17T07:02:06.066Z,3.1
2023-01-17T07:07:01.226Z,2.0
2023-01-17T07:12:06.497Z,1.8
2023-01-17T07:17:01.051Z,1.4
2023-01-17T07:22:01.113Z,1.7
2023-01-17T07:27:06.068Z,1.2
2023-01-17T07:42:01.176Z,1.2
2023-01-17T07:47:06.074Z,0.9
2023-01-17T07:52:06.060Z,1.3
2023-01-17T07:57:06.130Z,1.6
2023-01-17T08:02:01.241Z,2.0
2023-01-17T08:07:06.065Z,2.4
2023-01-17T08:12:01.593Z,2.3
2023-01-17T08:17:04.546Z,2.2
2023-01-17T08:22:01.070Z,2.1
2023-01-17T08:27:01.072Z,1.9
2023-01-17T08:37:01.154Z,2.3
2023-01-17T08:42:01.079Z,2.4
2023-01-17T08:47:01.267Z,2.7
2023-01-17T08:57:01.127Z,2.3
2023-01-17T09:02:01.232Z,2.0
2023-01-17T09:07:01.056Z,2.4
2023-01-17T09:12:01.075Z,2.3
2023-01-17T09:17:06.800Z,2.1
2023-01-17T09:22:03.484Z,2.4
2023-01-17T09:27:01.426Z,2.6
2023-01-17T09:32:01.056Z,2.4
2023-01-17T09:37:06.234Z,2.2
2023-01-17T09:42:06.094Z,2.5
2023-01-17T09:47:01.089Z,2.2
2023-01-17T09:52:01.077Z,2.1
2023-01-17T10:02:01.270Z,1.8
2023-01-17T10:07:10.286Z,1.7
2023-01-17T10:12:01.071Z,1.9
2023-01-17T10:17:06.134Z,2.2
2023-01-17T10:22:11.515Z,2.0
2023-01-17T10:27:06.127Z,2.1
2023-01-17T10:32:01.079Z,2.0
2023-01-17T10:37:06.148Z,2.2
2023-01-17T10:42:07.121Z,2.0
2023-01-17T10:47:01.054Z,1.7
2023-01-17T10:52:01.056Z,1.9
2023-01-17T10:57:06.127Z,1.8
2023-01-17T11:02:01.136Z,1.4
2023-01-17T11:07:01.061Z,1.2
2023-01-17T11:12:01.081Z,1.4
2023-01-17T11:17:06.151Z,1.6
2023-01-17T11:32:01.061Z,1.8
2023-01-17T11:37:01.120Z,1.7
2023-01-17T11:42:01.076Z,1.5
2023-01-17T11:58:06.116Z,1.1
2023-01-17T12:03:21.718Z,0.9
2023-01-17T12:08:06.106Z,0.5
2023-01-17T12:13:01.085Z,0.4
2023-01-17T12:18:01.089Z,0.5
2023-01-17T12:23:01.073Z,0.6
2023-01-17T12:28:01.072Z,0.5
2023-01-17T12:33:06.128Z,0.7
2023-01-17T12:38:06.125Z,0.9
2023-01-17T12:43:01.050Z,0.5
2023-01-17T12:48:01.061Z,0.7
2023-01-17T12:53:06.084Z,0.8
2023-01-17T12:58:01.268Z,1.2
2023-01-17T13:08:01.065Z,1.3
2023-01-17T13:13:01.095Z,1.1
2023-01-17T13:18:01.066Z,1.3
2023-01-17T13:23:06.107Z,1.0
2023-01-17T13:28:01.070Z,0.8
2023-01-17T13:33:21.666Z,0.9
2023-01-17T13:38:06.047Z,1.3
2023-01-17T13:43:01.161Z,1.1
2023-01-17T13:48:01.056Z,1.5
2023-01-17T13:53:01.149Z,1.6
2023-01-17T14:03:01.119Z,1.5
2023-01-17T14:08:06.172Z,1.7
2023-01-17T14:13:01.078Z,1.2
2023-01-17T14:18:01.093Z,1.6
2023-01-17T14:23:01.058Z,1.5
2023-01-17T14:28:06.112Z,1.6
2023-01-17T14:33:01.084Z,1.5
2023-01-17T14:38:01.094Z,1.8
2023-01-17T14:43:06.074Z,1.6
2023-01-17T14:48:01.081Z,2.1
2023-01-17T14:53:01.057Z,2.0
2023-01-17T14:58:01.097Z,2.4
2023-01-17T15:03:01.149Z,2.2
2023-01-17T15:08:01.091Z,2.4
2023-01-17T15:13:01.061Z,2.2
2023-01-17T15:18:06.099Z,2.9
2023-01-17T15:23:01.339Z,2.7
2023-01-17T15:28:01.121Z,3.1
2023-01-17T15:33:06.101Z,4.6
2023-01-17T15:38:01.083Z,5.1
2023-01-17T15:44:07.204Z,5.6
2023-01-17T15:49:06.102Z,6.6
2023-01-17T15:54:01.088Z,7.0
2023-01-17T15:59:21.750Z,5.9
2023-01-17T16:09:01.094Z,6.5
2023-01-17T16:14:01.059Z,5.6
2023-01-17T16:19:01.122Z,5.8
2023-01-17T16:24:06.108Z,5.9
2023-01-17T16:29:06.534Z,6.2
2023-01-17T16:34:06.100Z,7.8
2023-01-17T16:39:01.084Z,11.2
2023-01-17T16:44:01.190Z,12.3
2023-01-17T16:49:01.813Z,15.4
2023-01-17T16:54:06.154Z,18.5
2023-01-17T16:59:01.223Z,19.2
2023-01-17T17:04:06.072Z,18.7
2023-01-17T17:09:01.062Z,18.6
2023-01-17T17:14:06.114Z,17.8
2023-01-17T17:19:03.017Z,16.5
2023-01-17T17:24:02.152Z,14.2
2023-01-17T17:29:06.177Z,12.4
2023-01-17T17:34:03.240Z,11.4
2023-01-17T17:39:09.622Z,10.5
2023-01-17T17:44:06.033Z,8.2
2023-01-17T17:49:06.089Z,7.3
2023-01-17T17:54:06.732Z,7.0
2023-01-17T17:59:01.025Z,6.2
2023-01-17T18:09:06.091Z,4.8
2023-01-17T18:14:02.416Z,4.2
2023-01-17T18:19:06.106Z,3.6
2023-01-17T18:24:01.079Z,4.1
2023-01-17T18:29:06.220Z,4.6
2023-01-17T18:34:01.151Z,5.7
2023-01-17T18:39:06.071Z,6.5
2023-01-17T18:44:01.071Z,7.6
2023-01-17T18:49:01.105Z,7.9
2023-01-17T18:54:01.063Z,7.1
2023-01-17T18:59:07.128Z,5.9
2023-01-17T19:04:03.127Z,6.2
2023-01-17T19:09:01.069Z,6.0
2023-01-17T19:14:01.738Z,6.4
2023-01-17T19:19:06.115Z,7.2
2023-01-17T19:24:01.253Z,9.7
2023-01-17T19:29:01.070Z,9.8
2023-01-17T19:34:06.541Z,9.2
2023-01-17T19:39:05.802Z,10.8
2023-01-17T19:44:07.716Z,11.4
2023-01-17T19:49:02.112Z,10.7
2023-01-17T19:54:01.505Z,13.7
2023-01-17T19:59:01.736Z,16.6
2023-01-17T20:04:01.107Z,16.9
2023-01-17T20:09:01.132Z,18.2
2023-01-17T20:14:01.073Z,20.0
2023-01-17T20:19:06.626Z,18.8
2023-01-17T20:24:01.074Z,19.7
2023-01-17T20:29:01.067Z,19.9
2023-01-17T20:34:06.069Z,22.0
2023-01-17T20:39:01.147Z,22.6
2023-01-17T20:44:06.095Z,19.2
2023-01-17T20:49:01.107Z,19.0
2023-01-17T20:54:09.501Z,22.1
2023-01-17T20:59:06.054Z,22.2
2023-01-17T21:04:01.107Z,22.6
2023-01-17T21:09:03.437Z,26.5
2023-01-17T21:14:01.081Z,27.9
2023-01-17T21:19:06.821Z,25.3
2023-01-17T21:24:01.097Z,26.0
2023-01-17T21:29:06.096Z,26.2
2023-01-17T21:34:01.778Z,26.1
2023-01-17T21:39:03.705Z,27.0
2023-01-17T21:44:06.076Z,31.7
2023-01-17T21:49:06.093Z,28.0
2023-01-17T21:54:01.071Z,29.8
2023-01-17T21:59:01.066Z,34.4
2023-01-17T22:04:01.269Z,35.3
2023-01-17T22:09:06.497Z,33.0
2023-01-17T22:14:06.063Z,34.9
2023-01-17T22:19:06.120Z,35.3
2023-01-17T22:24:01.085Z,32.9
2023-01-17T22:29:06.116Z,30.7
2023-01-17T22:34:01.064Z,29.8
2023-01-17T22:39:01.075Z,30.8
2023-01-17T22:44:01.083Z,28.1
2023-01-17T22:49:06.120Z,28.0
2023-01-17T22:54:06.057Z,27.5
2023-01-17T22:59:06.054Z,26.4
2023-01-17T23:04:01.057Z,26.0
2023-01-17T23:09:01.092Z,27.0
2023-01-17T23:14:06.064Z,26.7
2023-01-17T23:19:01.066Z,26.1
2023-01-17T23:24:01.066Z,27.6
2023-01-17T23:29:01.098Z,27.8
2023-01-17T23:34:06.071Z,27.3
2023-01-17T23:39:01.493Z,26.6
2023-01-17T23:44:01.054Z,25.4
2023-01-17T23:49:01.083Z,26.0
2023-01-17T23:54:07.725Z,28.4
2023-01-17T23:59:06.300Z,28.1
